Time;durP1;ratioP1;P1;durP2;ratioP2;P2;SDS_P1;SDS_P2;PMS_P1;PMS_P2;Temp;Humidity;BMP_temperature;BMP_pressure;BME280_temperature;BME280_humidity;BME280_pressure;Samples;Min_cycle;Max_cycle;Signal;HPM_P1;HPM_P2
2021/06/06 00:00:12;;;;;;;6.20;3.60;;;;;;;;;;349070;28;1285;-69
2021/06/06 00:00:27;;;;;;;6.34;3.50;;;;;;;;;;348095;28;86563;-72
2021/06/06 00:00:41;;;;;;;6.10;3.70;;;;;;;;;;349676;28;17197;-71
2021/06/06 00:00:58;;;;;;;8.10;3.92;;;;;;;;;;350754;28;40249;-72
2021/06/06 00:01:15;;;;;;;7.50;4.00;;;;;;;;;;351269;28;63845;-72
2021/06/06 00:01:31;;;;;;;6.40;4.00;;;;;;;;;;351048;28;62538;-68
2021/06/06 00:01:44;;;;;;;6.38;3.83;;;;;;;;;;351056;28;62199;-68
2021/06/06 00:01:57;;;;;;;6.03;3.70;;;;;;;;;;354463;27;1093;-67
2021/06/06 00:02:09;;;;;;;6.43;3.60;;;;;;;;;;354537;27;1099;-68
2021/06/06 00:02:22;;;;;;;6.40;3.53;;;;;;;;;;354439;27;1093;-75
2021/06/06 00:02:34;;;;;;;6.90;3.50;;;;;;;;;;354462;27;1085;-71
2021/06/06 00:02:46;;;;;;;5.30;3.30;;;;;;;;;;354754;27;1144;-73
2021/06/06 00:03:00;;;;;;;3.80;3.25;;;;;;;;;;355007;27;1196;-75
2021/06/06 00:03:14;;;;;;;4.38;3.15;;;;;;;;;;355018;27;1105;-75
2021/06/06 00:03:31;;;;;;;4.80;3.20;;;;;;;;;;353418;27;40960;-70
2021/06/06 00:03:45;;;;;;;4.47;3.30;;;;;;;;;;352339;27;62267;-70
2021/06/06 00:03:59;;;;;;;4.38;3.40;;;;;;;;;;354373;27;17213;-70
2021/06/06 00:04:15;;;;;;;4.25;3.35;;;;;;;;;;354886;27;1095;-71
2021/06/06 00:04:45;;;;;;;6.36;3.44;;;;;;;;;;351757;27;86254;-69
2021/06/06 00:04:57;;;;;;;5.90;3.20;;;;;;;;;;354726;27;1261;-70
2021/06/06 00:05:10;;;;;;;5.18;3.08;;;;;;;;;;354740;27;984;-68
2021/06/06 00:05:23;;;;;;;4.70;3.10;;;;;;;;;;354570;27;1138;-68
2021/06/06 00:05:41;;;;;;;4.68;3.10;;;;;;;;;;354400;27;16668;-70
2021/06/06 00:05:53;;;;;;;3.83;3.10;;;;;;;;;;352551;27;62615;-69
2021/06/06 00:06:11;;;;;;;3.97;2.97;;;;;;;;;;354766;27;1109;-70
2021/06/06 00:06:29;;;;;;;4.35;3.10;;;;;;;;;;352628;27;62789;-75
2021/06/06 00:06:41;;;;;;;4.15;3.10;;;;;;;;;;353465;27;40182;-73
2021/06/06 00:06:54;;;;;;;4.93;3.17;;;;;;;;;;354771;27;1205;-76
2021/06/06 00:07:06;;;;;;;6.13;3.38;;;;;;;;;;354935;27;1046;-70
2021/06/06 00:07:18;;;;;;;8.27;3.60;;;;;;;;;;354467;27;1094;-69
2021/06/06 00:07:30;;;;;;;7.25;3.40;;;;;;;;;;354735;27;1207;-70
2021/06/06 00:07:42;;;;;;;7.00;3.22;;;;;;;;;;354894;27;1246;-70
2021/06/06 00:07:54;;;;;;;6.07;3.30;;;;;;;;;;354880;27;1120;-69
2021/06/06 00:08:07;;;;;;;5.93;3.20;;;;;;;;;;354391;27;1116;-69
2021/06/06 00:08:20;;;;;;;5.82;3.22;;;;;;;;;;354399;27;1046;-72
2021/06/06 00:08:32;;;;;;;5.75;3.40;;;;;;;;;;353382;28;1071;-72
2021/06/06 00:08:45;;;;;;;6.30;3.38;;;;;;;;;;353058;28;1058;-74
2021/06/06 00:08:57;;;;;;;5.85;3.15;;;;;;;;;;353140;28;1300;-75
2021/06/06 00:09:13;;;;;;;5.53;3.22;;;;;;;;;;352872;28;1302;-73
2021/06/06 00:09:25;;;;;;;6.97;3.50;;;;;;;;;;351079;28;63069;-76
2021/06/06 00:09:38;;;;;;;5.90;3.38;;;;;;;;;;353063;28;1066;-75
2021/06/06 00:09:50;;;;;;;5.13;3.33;;;;;;;;;;353163;28;993;-71
2021/06/06 00:10:03;;;;;;;5.78;3.28;;;;;;;;;;353099;27;1073;-69
2021/06/06 00:10:15;;;;;;;5.38;3.10;;;;;;;;;;354283;27;1200;-70
2021/06/06 00:10:28;;;;;;;5.85;3.10;;;;;;;;;;354539;27;1054;-68
2021/06/06 00:10:40;;;;;;;5.28;2.97;;;;;;;;;;354731;27;1095;-69
2021/06/06 00:10:58;;;;;;;6.05;2.97;;;;;;;;;;354468;27;1068;-70
2021/06/06 00:11:15;;;;;;;5.43;3.00;;;;;;;;;;352664;27;63818;-71
2021/06/06 00:11:27;;;;;;;5.57;3.00;;;;;;;;;;352685;27;63939;-72
2021/06/06 00:11:47;;;;;;;6.53;3.13;;;;;;;;;;354847;27;1176;-72
2021/06/06 00:11:59;;;;;;;7.05;3.13;;;;;;;;;;352313;27;62759;-74
2021/06/06 00:12:12;;;;;;;8.50;3.20;;;;;;;;;;354819;27;1320;-69
2021/06/06 00:12:25;;;;;;;6.60;3.05;;;;;;;;;;353301;28;1165;-69
2021/06/06 00:12:38;;;;;;;5.13;2.97;;;;;;;;;;352664;28;16914;-70
2021/06/06 00:12:50;;;;;;;4.85;3.00;;;;;;;;;;352929;28;1820;-68
2021/06/06 00:13:02;;;;;;;4.90;3.00;;;;;;;;;;352990;28;1156;-69
2021/06/06 00:13:15;;;;;;;6.40;3.00;;;;;;;;;;353010;28;1138;-70
2021/06/06 00:13:27;;;;;;;5.88;3.00;;;;;;;;;;353341;28;930;-72
2021/06/06 00:13:40;;;;;;;6.10;2.85;;;;;;;;;;353102;28;1104;-68
2021/06/06 00:13:54;;;;;;;5.65;2.90;;;;;;;;;;352489;28;17090;-71
2021/06/06 00:14:08;;;;;;;5.85;2.90;;;;;;;;;;354484;27;1005;-69
2021/06/06 00:14:27;;;;;;;5.78;2.90;;;;;;;;;;353973;27;17051;-69
2021/06/06 00:14:39;;;;;;;4.95;2.90;;;;;;;;;;352483;27;63854;-69
2021/06/06 00:14:52;;;;;;;4.80;2.70;;;;;;;;;;354555;27;1179;-72
2021/06/06 00:15:08;;;;;;;5.13;2.85;;;;;;;;;;354729;27;1038;-70
2021/06/06 00:15:20;;;;;;;5.20;3.05;;;;;;;;;;352567;27;63331;-71
2021/06/06 00:15:33;;;;;;;4.97;2.97;;;;;;;;;;354740;27;1102;-69
2021/06/06 00:15:45;;;;;;;4.90;3.08;;;;;;;;;;354552;27;1123;-68
2021/06/06 00:15:57;;;;;;;4.35;3.03;;;;;;;;;;354843;27;1084;-70
2021/06/06 00:16:12;;;;;;;4.65;3.03;;;;;;;;;;354613;27;1100;-70
2021/06/06 00:16:26;;;;;;;4.30;2.80;;;;;;;;;;353641;27;39998;-70
2021/06/06 00:16:41;;;;;;;5.25;2.70;;;;;;;;;;354186;27;16819;-69
2021/06/06 00:16:56;;;;;;;6.95;2.72;;;;;;;;;;353188;27;39732;-70
2021/06/06 00:17:10;;;;;;;5.63;2.80;;;;;;;;;;353380;27;40754;-69
2021/06/06 00:17:23;;;;;;;5.40;3.00;;;;;;;;;;353097;27;41207;-68
2021/06/06 00:17:35;;;;;;;4.65;2.85;;;;;;;;;;354517;27;1189;-68
2021/06/06 00:17:47;;;;;;;3.70;2.53;;;;;;;;;;353191;28;1013;-69
2021/06/06 00:17:59;;;;;;;4.15;2.60;;;;;;;;;;353189;28;1206;-69
2021/06/06 00:18:12;;;;;;;5.05;2.70;;;;;;;;;;352444;28;1725;-69
2021/06/06 00:18:25;;;;;;;4.70;2.70;;;;;;;;;;351616;28;1087;-70
2021/06/06 00:18:37;;;;;;;4.20;2.63;;;;;;;;;;351668;28;1164;-68
2021/06/06 00:18:50;;;;;;;4.00;2.80;;;;;;;;;;351746;28;1022;-70
2021/06/06 00:19:03;;;;;;;5.15;2.90;;;;;;;;;;351716;28;1137;-68
2021/06/06 00:19:15;;;;;;;5.70;2.78;;;;;;;;;;351568;28;1105;-68
2021/06/06 00:19:28;;;;;;;4.55;2.60;;;;;;;;;;351863;28;1006;-69
2021/06/06 00:19:40;;;;;;;4.68;2.50;;;;;;;;;;351626;28;1281;-70
2021/06/06 00:19:52;;;;;;;4.22;2.40;;;;;;;;;;351879;28;1176;-68
2021/06/06 00:20:06;;;;;;;3.97;2.30;;;;;;;;;;351677;28;1074;-70
2021/06/06 00:20:18;;;;;;;4.38;2.30;;;;;;;;;;352252;28;17224;-70
2021/06/06 00:20:30;;;;;;;5.18;2.47;;;;;;;;;;354537;27;1354;-72
2021/06/06 00:20:42;;;;;;;5.53;2.65;;;;;;;;;;354573;27;1079;-69
2021/06/06 00:20:55;;;;;;;4.70;2.70;;;;;;;;;;354668;27;999;-71
2021/06/06 00:21:07;;;;;;;3.95;2.60;;;;;;;;;;354417;27;1092;-70
2021/06/06 00:21:19;;;;;;;4.30;2.50;;;;;;;;;;354285;27;1180;-68
2021/06/06 00:21:32;;;;;;;4.95;2.45;;;;;;;;;;354406;27;969;-71
2021/06/06 00:21:44;;;;;;;4.95;2.53;;;;;;;;;;354426;27;1157;-69
2021/06/06 00:21:57;;;;;;;3.76;2.54;;;;;;;;;;354868;27;1064;-71
2021/06/06 00:22:09;;;;;;;2.90;2.55;;;;;;;;;;354541;27;1118;-70
2021/06/06 00:22:21;;;;;;;3.60;2.53;;;;;;;;;;354805;27;1644;-71
2021/06/06 00:22:34;;;;;;;4.70;2.60;;;;;;;;;;354748;27;1002;-69
2021/06/06 00:22:46;;;;;;;4.95;2.67;;;;;;;;;;354648;27;1084;-70
2021/06/06 00:22:58;;;;;;;4.70;2.60;;;;;;;;;;354799;27;1071;-69
2021/06/06 00:23:11;;;;;;;4.07;2.50;;;;;;;;;;354836;27;1913;-69
2021/06/06 00:23:24;;;;;;;4.80;2.47;;;;;;;;;;354561;27;1193;-70
2021/06/06 00:23:36;;;;;;;6.13;2.72;;;;;;;;;;354815;27;1341;-69
2021/06/06 00:23:48;;;;;;;6.35;2.78;;;;;;;;;;354677;27;1059;-69
2021/06/06 00:24:00;;;;;;;5.63;2.75;;;;;;;;;;354597;27;1041;-70
2021/06/06 00:24:13;;;;;;;4.28;2.50;;;;;;;;;;354491;27;1101;-69
2021/06/06 00:24:27;;;;;;;4.10;2.50;;;;;;;;;;354084;27;16867;-69
2021/06/06 00:24:39;;;;;;;4.53;2.42;;;;;;;;;;352844;28;16659;-70
2021/06/06 00:24:52;;;;;;;5.60;2.60;;;;;;;;;;353082;28;1113;-69
2021/06/06 00:25:07;;;;;;;5.18;2.60;;;;;;;;;;353242;28;1104;-71
2021/06/06 00:25:20;;;;;;;5.55;2.72;;;;;;;;;;351647;28;40127;-70
2021/06/06 00:25:32;;;;;;;4.97;2.88;;;;;;;;;;353105;28;1220;-70
2021/06/06 00:25:44;;;;;;;4.30;2.80;;;;;;;;;;353104;28;1290;-70
2021/06/06 00:25:56;;;;;;;4.25;2.55;;;;;;;;;;353301;28;1221;-69
2021/06/06 00:26:08;;;;;;;4.50;2.40;;;;;;;;;;353210;28;1218;-71
2021/06/06 00:26:21;;;;;;;3.92;2.50;;;;;;;;;;353087;28;1303;-70
2021/06/06 00:26:33;;;;;;;7.25;2.63;;;;;;;;;;351685;28;2046;-72
2021/06/06 00:26:45;;;;;;;7.95;3.00;;;;;;;;;;351548;28;1096;-71
2021/06/06 00:26:57;;;;;;;6.03;2.93;;;;;;;;;;351791;28;2066;-69
2021/06/06 00:27:10;;;;;;;5.65;2.63;;;;;;;;;;350370;28;1098;-68
2021/06/06 00:27:23;;;;;;;4.47;2.40;;;;;;;;;;350421;28;1489;-69
2021/06/06 00:27:35;;;;;;;3.38;2.40;;;;;;;;;;349930;28;17036;-68
2021/06/06 00:27:48;;;;;;;4.05;2.50;;;;;;;;;;350259;28;1105;-69
2021/06/06 00:28:01;;;;;;;4.65;2.47;;;;;;;;;;351546;28;1320;-71
2021/06/06 00:28:13;;;;;;;4.68;2.60;;;;;;;;;;351590;28;1143;-73
2021/06/06 00:28:25;;;;;;;5.20;2.80;;;;;;;;;;352948;28;1042;-71
2021/06/06 00:28:38;;;;;;;5.40;2.72;;;;;;;;;;353011;28;1138;-70
2021/06/06 00:28:50;;;;;;;5.18;2.70;;;;;;;;;;353121;28;1186;-71
2021/06/06 00:29:03;;;;;;;4.63;2.53;;;;;;;;;;351691;28;1089;-69
2021/06/06 00:29:15;;;;;;;4.47;2.42;;;;;;;;;;352879;28;1065;-69
2021/06/06 00:29:30;;;;;;;4.85;2.50;;;;;;;;;;350437;28;40188;-69
2021/06/06 00:29:42;;;;;;;5.50;2.63;;;;;;;;;;351744;28;1146;-69
2021/06/06 00:29:54;;;;;;;5.78;2.78;;;;;;;;;;351947;28;1097;-71
2021/06/06 00:30:07;;;;;;;5.93;2.92;;;;;;;;;;350129;28;1428;-70
2021/06/06 00:30:21;;;;;;;5.70;2.85;;;;;;;;;;350641;28;1100;-70
2021/06/06 00:30:34;;;;;;;5.40;2.80;;;;;;;;;;349914;28;16624;-69
2021/06/06 00:30:46;;;;;;;4.05;2.70;;;;;;;;;;350342;28;1083;-71
2021/06/06 00:30:59;;;;;;;4.22;2.83;;;;;;;;;;348998;28;1146;-72
2021/06/06 00:31:12;;;;;;;4.50;2.72;;;;;;;;;;348850;28;1944;-68
2021/06/06 00:31:24;;;;;;;4.57;2.58;;;;;;;;;;349123;28;990;-68
2021/06/06 00:31:37;;;;;;;4.72;2.60;;;;;;;;;;350455;28;1318;-68
2021/06/06 00:31:49;;;;;;;4.35;2.67;;;;;;;;;;351472;28;1294;-67
2021/06/06 00:32:02;;;;;;;3.95;2.72;;;;;;;;;;350292;28;993;-71
2021/06/06 00:32:14;;;;;;;4.03;2.83;;;;;;;;;;351868;28;1097;-72
2021/06/06 00:32:27;;;;;;;4.72;2.90;;;;;;;;;;351865;28;1326;-71
2021/06/06 00:32:39;;;;;;;4.90;2.72;;;;;;;;;;351952;28;1157;-71
2021/06/06 00:32:51;;;;;;;4.93;2.72;;;;;;;;;;351589;28;1412;-71
2021/06/06 00:33:04;;;;;;;4.78;2.88;;;;;;;;;;351899;28;1109;-72
2021/06/06 00:33:16;;;;;;;5.15;3.00;;;;;;;;;;352789;28;1208;-72
2021/06/06 00:33:28;;;;;;;5.30;2.80;;;;;;;;;;353161;28;998;-70
2021/06/06 00:33:40;;;;;;;6.53;2.72;;;;;;;;;;353087;28;1107;-70
2021/06/06 00:33:53;;;;;;;5.97;2.88;;;;;;;;;;352990;28;1061;-70
2021/06/06 00:34:05;;;;;;;5.50;3.00;;;;;;;;;;354258;27;1926;-69
2021/06/06 00:34:18;;;;;;;5.62;3.14;;;;;;;;;;353372;27;1186;-70
2021/06/06 00:34:31;;;;;;;4.85;3.10;;;;;;;;;;354272;27;1088;-70
2021/06/06 00:34:43;;;;;;;4.82;3.10;;;;;;;;;;353136;28;1092;-70
2021/06/06 00:34:55;;;;;;;4.10;3.00;;;;;;;;;;352258;28;1082;-70
2021/06/06 00:35:08;;;;;;;4.34;2.90;;;;;;;;;;353204;28;1091;-69
2021/06/06 00:35:21;;;;;;;4.32;2.95;;;;;;;;;;354339;27;1020;-69
2021/06/06 00:35:33;;;;;;;4.38;2.90;;;;;;;;;;354568;27;1093;-68
2021/06/06 00:35:46;;;;;;;4.97;2.80;;;;;;;;;;352796;28;1418;-68
2021/06/06 00:35:58;;;;;;;6.13;3.10;;;;;;;;;;353238;28;1163;-69
2021/06/06 00:36:10;;;;;;;7.57;3.45;;;;;;;;;;353017;28;1095;-69
2021/06/06 00:36:23;;;;;;;7.35;3.53;;;;;;;;;;353147;28;1130;-69
2021/06/06 00:36:35;;;;;;;6.38;3.30;;;;;;;;;;352996;28;1192;-69
2021/06/06 00:36:47;;;;;;;4.10;2.92;;;;;;;;;;354288;27;1072;-70
2021/06/06 00:37:00;;;;;;;4.40;2.80;;;;;;;;;;353192;28;1508;-72
2021/06/06 00:37:12;;;;;;;4.93;2.85;;;;;;;;;;353077;28;1422;-71
2021/06/06 00:37:24;;;;;;;4.88;3.10;;;;;;;;;;353310;28;1195;-71
2021/06/06 00:37:36;;;;;;;4.47;3.40;;;;;;;;;;353047;28;1440;-69
2021/06/06 00:37:49;;;;;;;4.97;3.30;;;;;;;;;;354009;27;1041;-70
2021/06/06 00:38:02;;;;;;;4.70;3.20;;;;;;;;;;354548;27;1065;-70
2021/06/06 00:38:14;;;;;;;4.40;3.25;;;;;;;;;;354013;27;18246;-73
2021/06/06 00:38:29;;;;;;;5.03;3.50;;;;;;;;;;354681;27;1088;-69
2021/06/06 00:38:42;;;;;;;4.72;3.50;;;;;;;;;;351977;28;40903;-71
2021/06/06 00:38:54;;;;;;;4.88;3.20;;;;;;;;;;352931;28;1390;-69
2021/06/06 00:39:07;;;;;;;5.05;3.20;;;;;;;;;;353210;28;1377;-69
2021/06/06 00:39:19;;;;;;;7.53;3.30;;;;;;;;;;353038;28;1185;-72
2021/06/06 00:39:31;;;;;;;7.60;3.30;;;;;;;;;;352997;28;1081;-71
2021/06/06 00:39:43;;;;;;;6.13;3.28;;;;;;;;;;353106;28;1089;-76
2021/06/06 00:39:55;;;;;;;4.97;3.20;;;;;;;;;;353085;28;1029;-70
2021/06/06 00:40:08;;;;;;;5.50;3.30;;;;;;;;;;353172;28;1029;-70
2021/06/06 00:40:25;;;;;;;5.25;3.30;;;;;;;;;;350665;28;63426;-68
2021/06/06 00:40:37;;;;;;;4.90;3.40;;;;;;;;;;352650;27;16947;-69
2021/06/06 00:40:49;;;;;;;5.20;3.40;;;;;;;;;;352951;28;982;-69
2021/06/06 00:41:05;;;;;;;5.43;3.40;;;;;;;;;;351793;28;40865;-70
2021/06/06 00:41:18;;;;;;;6.45;3.40;;;;;;;;;;352881;28;1054;-68
2021/06/06 00:41:31;;;;;;;7.43;3.28;;;;;;;;;;353031;28;1145;-67
2021/06/06 00:41:45;;;;;;;6.82;3.28;;;;;;;;;;352987;28;1747;-67
2021/06/06 00:41:59;;;;;;;4.60;3.28;;;;;;;;;;353568;27;16869;-70
2021/06/06 00:42:15;;;;;;;5.70;3.20;;;;;;;;;;354089;27;16836;-70
2021/06/06 00:42:27;;;;;;;7.50;3.25;;;;;;;;;;352358;27;64019;-72
2021/06/06 00:42:39;;;;;;;7.60;3.45;;;;;;;;;;354635;27;1147;-69
2021/06/06 00:42:54;;;;;;;6.03;3.45;;;;;;;;;;353749;27;40264;-71
2021/06/06 00:43:07;;;;;;;5.45;3.25;;;;;;;;;;354726;27;1641;-69
2021/06/06 00:43:22;;;;;;;5.65;3.08;;;;;;;;;;354736;27;1291;-68
2021/06/06 00:43:35;;;;;;;5.57;3.03;;;;;;;;;;352474;27;62509;-69
2021/06/06 00:43:47;;;;;;;5.18;3.10;;;;;;;;;;354760;27;1119;-69
2021/06/06 00:43:59;;;;;;;4.75;3.10;;;;;;;;;;354958;27;1081;-72
2021/06/06 00:44:11;;;;;;;4.53;2.90;;;;;;;;;;354561;27;1149;-69
2021/06/06 00:44:26;;;;;;;4.65;3.00;;;;;;;;;;354540;27;17034;-68
2021/06/06 00:44:39;;;;;;;5.70;3.03;;;;;;;;;;354880;27;1009;-68
2021/06/06 00:44:51;;;;;;;5.40;3.00;;;;;;;;;;354669;27;1179;-68
2021/06/06 00:45:05;;;;;;;5.88;3.10;;;;;;;;;;354493;27;1168;-68
2021/06/06 00:45:19;;;;;;;6.50;3.08;;;;;;;;;;353960;27;17838;-72
2021/06/06 00:45:31;;;;;;;6.07;3.20;;;;;;;;;;354058;27;17296;-68
2021/06/06 00:45:44;;;;;;;5.07;3.13;;;;;;;;;;354500;27;1170;-68
2021/06/06 00:45:57;;;;;;;5.68;3.20;;;;;;;;;;354797;27;1026;-68
2021/06/06 00:46:09;;;;;;;6.70;3.10;;;;;;;;;;354618;27;1148;-69
2021/06/06 00:46:22;;;;;;;6.18;3.17;;;;;;;;;;354435;27;997;-69
2021/06/06 00:46:35;;;;;;;5.13;3.00;;;;;;;;;;354057;27;18454;-69
2021/06/06 00:46:47;;;;;;;5.15;3.00;;;;;;;;;;354368;27;1094;-68
2021/06/06 00:47:02;;;;;;;5.22;3.15;;;;;;;;;;354604;27;1121;-68
2021/06/06 00:47:15;;;;;;;6.88;3.45;;;;;;;;;;351837;28;39792;-69
2021/06/06 00:47:29;;;;;;;7.20;3.58;;;;;;;;;;353282;28;1168;-69
2021/06/06 00:47:41;;;;;;;5.82;3.52;;;;;;;;;;353285;28;1038;-69
2021/06/06 00:47:53;;;;;;;5.32;3.38;;;;;;;;;;353205;28;1144;-69
2021/06/06 00:48:06;;;;;;;5.07;3.30;;;;;;;;;;353206;28;1933;-69
2021/06/06 00:48:18;;;;;;;6.15;3.30;;;;;;;;;;353009;28;1152;-69
2021/06/06 00:48:31;;;;;;;6.78;3.20;;;;;;;;;;353087;28;1947;-72
2021/06/06 00:48:43;;;;;;;6.32;3.10;;;;;;;;;;352958;28;1214;-68
2021/06/06 00:48:55;;;;;;;4.90;3.20;;;;;;;;;;353197;28;1093;-69
2021/06/06 00:49:08;;;;;;;5.05;3.25;;;;;;;;;;354520;27;1203;-68
2021/06/06 00:49:20;;;;;;;6.10;3.30;;;;;;;;;;354398;27;1181;-70
2021/06/06 00:49:32;;;;;;;6.22;3.20;;;;;;;;;;353179;28;1128;-69
2021/06/06 00:49:45;;;;;;;6.28;3.28;;;;;;;;;;353069;28;1212;-69
2021/06/06 00:50:07;;;;;;;;;;;;;;;;;;;;;
2021/06/06 00:50:28;;;;;;;5.60;3.10;;;;;;;;;;350068;27;64638;-69
2021/06/06 00:50:42;;;;;;;5.15;3.20;;;;;;;;;;352517;27;62510;-71
2021/06/06 00:50:56;;;;;;;4.97;3.20;;;;;;;;;;354020;27;17232;-70
2021/06/06 00:51:12;;;;;;;5.78;3.40;;;;;;;;;;354325;27;17892;-69
2021/06/06 00:51:28;;;;;;;6.00;3.22;;;;;;;;;;352501;27;63292;-72
2021/06/06 00:51:45;;;;;;;7.25;3.13;;;;;;;;;;352380;27;62862;-69
2021/06/06 00:51:59;;;;;;;7.45;3.25;;;;;;;;;;353140;27;40854;-70
2021/06/06 00:52:12;;;;;;;5.15;3.10;;;;;;;;;;354537;27;1099;-69
2021/06/06 00:52:24;;;;;;;4.40;3.10;;;;;;;;;;354599;27;1013;-69
2021/06/06 00:52:37;;;;;;;4.35;3.10;;;;;;;;;;353249;28;1144;-68
2021/06/06 00:52:50;;;;;;;5.07;3.22;;;;;;;;;;351643;28;1092;-68
2021/06/06 00:53:05;;;;;;;6.35;3.65;;;;;;;;;;352035;28;1021;-69
2021/06/06 00:53:22;;;;;;;6.00;3.90;;;;;;;;;;351131;28;17199;-69
2021/06/06 00:53:42;;;;;;;4.90;3.65;;;;;;;;;;349641;28;63034;-69
2021/06/06 00:53:56;;;;;;;5.10;3.50;;;;;;;;;;350947;28;63126;-69
2021/06/06 00:54:11;;;;;;;4.53;3.30;;;;;;;;;;352412;28;16626;-69
2021/06/06 00:54:34;;;;;;;5.13;3.55;;;;;;;;;;351840;28;41064;-69
2021/06/06 00:54:47;;;;;;;6.20;3.72;;;;;;;;;;352292;27;63558;-69
2021/06/06 00:54:59;;;;;;;5.90;3.50;;;;;;;;;;354818;27;1241;-69
2021/06/06 00:55:11;;;;;;;5.43;3.50;;;;;;;;;;354760;27;1081;-70
2021/06/06 00:55:24;;;;;;;5.03;3.30;;;;;;;;;;354761;27;1113;-68
2021/06/06 00:55:37;;;;;;;4.20;3.38;;;;;;;;;;354627;27;1252;-68
2021/06/06 00:55:49;;;;;;;4.18;3.42;;;;;;;;;;354684;27;1092;-69
2021/06/06 00:56:03;;;;;;;6.18;3.60;;;;;;;;;;354801;27;1340;-70
2021/06/06 00:56:17;;;;;;;7.43;3.70;;;;;;;;;;354109;27;16044;-69
2021/06/06 00:56:30;;;;;;;6.18;3.60;;;;;;;;;;355146;27;17084;-70
2021/06/06 00:56:44;;;;;;;5.60;3.50;;;;;;;;;;356155;27;1133;-70
2021/06/06 00:57:14;;;;;;;7.20;3.50;;;;;;;;;;355378;27;17042;-69
2021/06/06 00:57:28;;;;;;;5.25;3.33;;;;;;;;;;353837;27;63447;-71
2021/06/06 00:57:41;;;;;;;4.80;3.50;;;;;;;;;;354722;27;39734;-69
2021/06/06 00:57:54;;;;;;;5.07;3.50;;;;;;;;;;356064;27;1281;-69
2021/06/06 00:58:11;;;;;;;5.85;3.20;;;;;;;;;;355620;27;16801;-70
2021/06/06 00:58:23;;;;;;;6.68;3.38;;;;;;;;;;354553;27;39820;-70
2021/06/06 00:58:35;;;;;;;5.90;3.25;;;;;;;;;;356094;27;998;-69
2021/06/06 00:58:49;;;;;;;6.20;3.10;;;;;;;;;;355908;27;1290;-70
2021/06/06 00:59:02;;;;;;;5.38;3.10;;;;;;;;;;355617;27;17240;-69
2021/06/06 00:59:17;;;;;;;4.28;3.30;;;;;;;;;;355853;27;1198;-70
2021/06/06 00:59:31;;;;;;;5.68;3.45;;;;;;;;;;354674;27;39484;-69
2021/06/06 00:59:48;;;;;;;6.57;3.50;;;;;;;;;;355524;27;15828;-69
2021/06/06 01:00:20;;;;;;;6.40;3.50;;;;;;;;;;354061;27;63849;-69
2021/06/06 01:00:34;;;;;;;6.53;3.42;;;;;;;;;;352202;27;63299;-69
2021/06/06 01:00:51;;;;;;;7.15;3.50;;;;;;;;;;352704;27;62388;-72
2021/06/06 01:01:04;;;;;;;6.85;3.50;;;;;;;;;;354748;27;1194;-70
2021/06/06 01:01:17;;;;;;;5.53;3.20;;;;;;;;;;354204;27;1009;-68
2021/06/06 01:01:30;;;;;;;6.34;3.32;;;;;;;;;;354447;27;1090;-69
2021/06/06 01:01:42;;;;;;;7.03;3.63;;;;;;;;;;354700;27;1105;-68
2021/06/06 01:01:54;;;;;;;6.75;3.63;;;;;;;;;;354828;27;1040;-69
2021/06/06 01:02:07;;;;;;;7.88;3.60;;;;;;;;;;354674;27;1052;-71
2021/06/06 01:02:21;;;;;;;6.68;3.70;;;;;;;;;;354167;27;1109;-73
2021/06/06 01:02:33;;;;;;;5.10;3.70;;;;;;;;;;354987;27;17093;-73
2021/06/06 01:02:46;;;;;;;5.70;3.60;;;;;;;;;;355965;27;1050;-72
2021/06/06 01:02:59;;;;;;;5.88;3.60;;;;;;;;;;356123;27;1164;-73
2021/06/06 01:03:11;;;;;;;5.72;3.40;;;;;;;;;;355976;27;1108;-73
2021/06/06 01:03:25;;;;;;;5.55;3.38;;;;;;;;;;356137;27;1195;-72
2021/06/06 01:03:37;;;;;;;5.95;3.40;;;;;;;;;;355557;27;17210;-72
2021/06/06 01:03:50;;;;;;;5.25;3.38;;;;;;;;;;355942;27;1097;-71
2021/06/06 01:04:03;;;;;;;4.63;3.30;;;;;;;;;;356046;27;1214;-71
2021/06/06 01:04:16;;;;;;;6.25;3.65;;;;;;;;;;355853;27;1084;-71
2021/06/06 01:04:28;;;;;;;7.47;3.70;;;;;;;;;;356512;27;1281;-71
2021/06/06 01:04:41;;;;;;;6.75;3.33;;;;;;;;;;356303;27;1105;-71
2021/06/06 01:04:53;;;;;;;4.25;3.17;;;;;;;;;;354672;27;1979;-70
2021/06/06 01:05:14;;;;;;;4.50;3.30;;;;;;;;;;354611;27;1127;-72
2021/06/06 01:05:35;;;;;;;5.18;3.20;;;;;;;;;;352722;27;63715;-68
2021/06/06 01:05:53;;;;;;;5.28;3.40;;;;;;;;;;351243;27;62607;-67
2021/06/06 01:06:11;;;;;;;5.60;3.42;;;;;;;;;;351088;27;63779;-68
2021/06/06 01:06:26;;;;;;;5.97;3.40;;;;;;;;;;351104;27;62549;-68
2021/06/06 01:06:45;;;;;;;5.50;3.53;;;;;;;;;;352066;27;39548;-68
2021/06/06 01:06:57;;;;;;;8.02;4.18;;;;;;;;;;352510;27;62804;-68
2021/06/06 01:07:10;;;;;;;7.90;4.25;;;;;;;;;;354962;27;1194;-70
2021/06/06 01:07:22;;;;;;;7.15;4.03;;;;;;;;;;354436;27;1008;-69
2021/06/06 01:07:34;;;;;;;5.78;4.06;;;;;;;;;;353426;27;1106;-69
2021/06/06 01:07:47;;;;;;;5.60;4.10;;;;;;;;;;353145;27;1160;-69
2021/06/06 01:08:04;;;;;;;6.57;4.20;;;;;;;;;;353518;27;975;-69
2021/06/06 01:08:19;;;;;;;8.52;4.00;;;;;;;;;;349767;28;64012;-69
2021/06/06 01:08:34;;;;;;;8.18;3.90;;;;;;;;;;349783;28;64083;-68
2021/06/06 01:08:49;;;;;;;6.68;3.75;;;;;;;;;;350420;28;39111;-69
2021/06/06 01:09:03;;;;;;;6.75;3.53;;;;;;;;;;349216;28;42096;-68
2021/06/06 01:09:17;;;;;;;7.57;3.50;;;;;;;;;;348720;28;17914;-69
2021/06/06 01:09:29;;;;;;;6.68;3.70;;;;;;;;;;350176;28;16688;-69
2021/06/06 01:09:41;;;;;;;6.95;3.83;;;;;;;;;;350755;28;1094;-68
2021/06/06 01:09:54;;;;;;;6.45;3.85;;;;;;;;;;350454;28;1924;-68
2021/06/06 01:10:07;;;;;;;5.28;3.50;;;;;;;;;;350740;28;1074;-68
2021/06/06 01:10:19;;;;;;;5.60;3.50;;;;;;;;;;349226;28;2541;-67
2021/06/06 01:10:32;;;;;;;5.68;3.40;;;;;;;;;;349202;28;1394;-68
2021/06/06 01:10:45;;;;;;;5.13;3.33;;;;;;;;;;348807;28;1354;-68
2021/06/06 01:11:00;;;;;;;4.55;3.20;;;;;;;;;;349021;28;1066;-70
2021/06/06 01:11:12;;;;;;;6.07;3.30;;;;;;;;;;348615;28;64071;-69
2021/06/06 01:11:24;;;;;;;6.05;3.50;;;;;;;;;;351856;28;2190;-68
2021/06/06 01:11:42;;;;;;;6.32;3.55;;;;;;;;;;350477;28;1381;-67
2021/06/06 01:11:55;;;;;;;6.95;3.53;;;;;;;;;;349718;28;63620;-69
2021/06/06 01:12:07;;;;;;;5.95;3.40;;;;;;;;;;352618;27;1180;-68
2021/06/06 01:12:19;;;;;;;5.65;3.42;;;;;;;;;;354042;27;1097;-68
2021/06/06 01:12:32;;;;;;;5.86;3.34;;;;;;;;;;353189;27;1097;-68
2021/06/06 01:12:48;;;;;;;6.43;3.22;;;;;;;;;;353355;27;1093;-68
2021/06/06 01:13:06;;;;;;;8.13;3.63;;;;;;;;;;351047;27;63529;-69
2021/06/06 01:13:50;;;;;;;9.35;3.85;;;;;;;;;;351155;27;63910;-69
2021/06/06 01:14:08;;;;;;;3.97;3.28;;;;;;;;;;349963;28;64406;-69
2021/06/06 01:14:35;;;;;;;4.70;3.00;;;;;;;;;;349415;28;64733;-69
2021/06/06 01:14:47;;;;;;;5.75;3.40;;;;;;;;;;349690;28;63234;-69
2021/06/06 01:15:04;;;;;;;5.32;3.40;;;;;;;;;;352104;28;1501;-69
2021/06/06 01:15:20;;;;;;;5.00;3.30;;;;;;;;;;349487;28;63723;-68
2021/06/06 01:15:34;;;;;;;5.10;3.33;;;;;;;;;;350562;28;41058;-68
2021/06/06 01:15:48;;;;;;;4.54;3.40;;;;;;;;;;351115;28;16755;-68
2021/06/06 01:16:04;;;;;;;6.68;3.58;;;;;;;;;;351420;28;16005;-69
2021/06/06 01:16:22;;;;;;;6.03;3.33;;;;;;;;;;350393;28;39715;-68
2021/06/06 01:16:37;;;;;;;4.53;3.22;;;;;;;;;;349858;28;63872;-69
2021/06/06 01:16:57;;;;;;;6.00;3.50;;;;;;;;;;348273;28;63150;-69
2021/06/06 01:17:12;;;;;;;6.82;3.42;;;;;;;;;;348325;28;63092;-69
2021/06/06 01:17:31;;;;;;;5.80;3.15;;;;;;;;;;348458;28;62765;-68
2021/06/06 01:17:49;;;;;;;6.15;3.13;;;;;;;;;;348496;28;62762;-68
2021/06/06 01:18:22;;;;;;;6.97;3.45;;;;;;;;;;348602;28;63846;-69
2021/06/06 01:18:36;;;;;;;6.10;3.55;;;;;;;;;;348427;28;63816;-69
2021/06/06 01:18:50;;;;;;;5.93;3.47;;;;;;;;;;349933;28;40207;-69
2021/06/06 01:19:09;;;;;;;6.10;3.15;;;;;;;;;;349926;28;17184;-70
2021/06/06 01:19:33;;;;;;;4.93;3.30;;;;;;;;;;348225;28;63514;-68
2021/06/06 01:20:06;;;;;;;5.35;3.47;;;;;;;;;;348337;28;62207;-67
2021/06/06 01:20:36;;;;;;;7.53;3.42;;;;;;;;;;348109;28;64361;-69
2021/06/06 01:21:01;;;;;;;6.18;3.60;;;;;;;;;;346803;28;64648;-69
2021/06/06 01:21:31;;;;;;;6.72;3.50;;;;;;;;;;348312;28;64593;-69
2021/06/06 01:22:02;;;;;;;6.10;3.58;;;;;;;;;;348259;28;63993;-69
2021/06/06 01:22:26;;;;;;;5.82;3.60;;;;;;;;;;348534;28;64753;-70
2021/06/06 01:23:01;;;;;;;6.28;3.70;;;;;;;;;;348426;28;62101;-68
2021/06/06 01:23:32;;;;;;;8.63;3.33;;;;;;;;;;345738;28;63601;-69
2021/06/06 01:23:56;;;;;;;7.22;3.72;;;;;;;;;;345530;28;63065;-68
2021/06/06 01:24:12;;;;;;;6.90;3.80;;;;;;;;;;345663;28;64564;-68
2021/06/06 01:24:31;;;;;;;4.80;3.42;;;;;;;;;;345239;28;64609;-69
2021/06/06 01:24:48;;;;;;;5.57;3.45;;;;;;;;;;345756;28;65334;-70
2021/06/06 01:25:27;;;;;;;6.00;3.30;;;;;;;;;;347126;28;17017;-70
2021/06/06 01:25:44;;;;;;;6.05;3.50;;;;;;;;;;343716;28;64582;-69
2021/06/06 01:25:59;;;;;;;6.07;3.67;;;;;;;;;;342963;28;64365;-69
2021/06/06 01:26:14;;;;;;;5.28;3.70;;;;;;;;;;344658;28;17655;-69
2021/06/06 01:26:44;;;;;;;5.07;3.42;;;;;;;;;;343633;28;42490;-68
2021/06/06 01:27:02;;;;;;;4.75;3.50;;;;;;;;;;343119;28;64348;-69
2021/06/06 01:27:17;;;;;;;6.18;3.65;;;;;;;;;;342860;28;64994;-71
2021/06/06 01:27:35;;;;;;;5.78;3.60;;;;;;;;;;342798;28;63732;-68
2021/06/06 01:27:52;;;;;;;4.95;3.30;;;;;;;;;;342867;28;63835;-69
2021/06/06 01:28:13;;;;;;;4.25;3.50;;;;;;;;;;342880;28;63718;-69
2021/06/06 01:28:29;;;;;;;4.60;3.45;;;;;;;;;;342851;28;63875;-69
2021/06/06 01:28:49;;;;;;;5.68;3.50;;;;;;;;;;342823;28;63106;-69
2021/06/06 01:29:09;;;;;;;6.35;3.63;;;;;;;;;;343040;28;63774;-70
2021/06/06 01:29:40;;;;;;;5.75;3.60;;;;;;;;;;342613;28;63458;-68